sensor_id;sensor_type;location;lat;lon;timestamp;P1;durP1;ratioP1;P2;durP2;ratioP2
64550;SDS011;50945;44.472;-123.352;2022-11-15T00:00:57;12.52;;;6.75;;
64550;SDS011;50945;44.472;-123.352;2022-11-15T00:03:24;10.75;;;6.53;;
64550;SDS011;50945;44.472;-123.352;2022-11-15T00:05:54;10.23;;;6.40;;
64550;SDS011;50945;44.472;-123.352;2022-11-15T00:08:28;10.27;;;6.45;;
64550;SDS011;50945;44.472;-123.352;2022-11-15T00:10:56;10.00;;;6.35;;
64550;SDS011;50945;44.472;-123.352;2022-11-15T00:13:24;10.55;;;6.20;;
64550;SDS011;50945;44.472;-123.352;2022-11-15T00:15:50;7.82;;;5.30;;
64550;SDS011;50945;44.472;-123.352;2022-11-15T00:18:17;10.65;;;6.38;;
64550;SDS011;50945;44.472;-123.352;2022-11-15T00:20:44;10.20;;;5.68;;
64550;SDS011;50945;44.472;-123.352;2022-11-15T00:23:11;12.40;;;6.43;;
64550;SDS011;50945;44.472;-123.352;2022-11-15T00:25:37;7.72;;;6.10;;
64550;SDS011;50945;44.472;-123.352;2022-11-15T00:28:04;10.00;;;6.05;;
64550;SDS011;50945;44.472;-123.352;2022-11-15T00:30:30;10.52;;;5.88;;
64550;SDS011;50945;44.472;-123.352;2022-11-15T00:33:00;9.30;;;6.00;;
64550;SDS011;50945;44.472;-123.352;2022-11-15T00:35:28;9.75;;;5.78;;
64550;SDS011;50945;44.472;-123.352;2022-11-15T00:37:56;7.60;;;5.10;;
64550;SDS011;50945;44.472;-123.352;2022-11-15T00:40:23;9.38;;;5.35;;
64550;SDS011;50945;44.472;-123.352;2022-11-15T00:42:49;8.98;;;5.43;;
64550;SDS011;50945;44.472;-123.352;2022-11-15T00:45:16;9.43;;;5.38;;
64550;SDS011;50945;44.472;-123.352;2022-11-15T00:47:45;11.02;;;6.40;;
64550;SDS011;50945;44.472;-123.352;2022-11-15T00:50:12;7.15;;;5.55;;
64550;SDS011;50945;44.472;-123.352;2022-11-15T00:52:39;10.65;;;6.82;;
64550;SDS011;50945;44.472;-123.352;2022-11-15T00:55:05;13.48;;;8.30;;
64550;SDS011;50945;44.472;-123.352;2022-11-15T00:57:32;8.60;;;6.60;;
64550;SDS011;50945;44.472;-123.352;2022-11-15T00:59:58;13.07;;;7.43;;
64550;SDS011;50945;44.472;-123.352;2022-11-15T01:02:25;18.33;;;9.52;;
64550;SDS011;50945;44.472;-123.352;2022-11-15T01:04:51;21.23;;;10.63;;
64550;SDS011;50945;44.472;-123.352;2022-11-15T01:07:18;15.82;;;9.52;;
64550;SDS011;50945;44.472;-123.352;2022-11-15T01:09:44;14.40;;;8.68;;
64550;SDS011;50945;44.472;-123.352;2022-11-15T01:12:10;13.15;;;7.93;;
64550;SDS011;50945;44.472;-123.352;2022-11-15T01:14:37;14.70;;;8.98;;
64550;SDS011;50945;44.472;-123.352;2022-11-15T01:17:03;16.35;;;8.45;;
64550;SDS011;50945;44.472;-123.352;2022-11-15T01:19:30;13.45;;;8.40;;
64550;SDS011;50945;44.472;-123.352;2022-11-15T01:21:56;15.20;;;8.40;;
64550;SDS011;50945;44.472;-123.352;2022-11-15T01:24:23;18.40;;;8.38;;
64550;SDS011;50945;44.472;-123.352;2022-11-15T01:26:49;16.77;;;7.80;;
64550;SDS011;50945;44.472;-123.352;2022-11-15T01:29:16;15.48;;;8.50;;
64550;SDS011;50945;44.472;-123.352;2022-11-15T01:31:42;18.95;;;8.43;;
64550;SDS011;50945;44.472;-123.352;2022-11-15T01:34:09;14.25;;;7.32;;
64550;SDS011;50945;44.472;-123.352;2022-11-15T01:36:38;14.75;;;7.00;;
64550;SDS011;50945;44.472;-123.352;2022-11-15T01:39:05;13.25;;;6.40;;
64550;SDS011;50945;44.472;-123.352;2022-11-15T01:41:32;11.80;;;5.90;;
64550;SDS011;50945;44.472;-123.352;2022-11-15T01:46:56;8.50;;;4.43;;
64550;SDS011;50945;44.472;-123.352;2022-11-15T01:49:25;6.93;;;4.57;;
64550;SDS011;50945;44.472;-123.352;2022-11-15T01:51:55;6.82;;;4.45;;
64550;SDS011;50945;44.472;-123.352;2022-11-15T01:54:23;7.22;;;5.35;;
64550;SDS011;50945;44.472;-123.352;2022-11-15T01:56:54;7.95;;;4.20;;
64550;SDS011;50945;44.472;-123.352;2022-11-15T01:59:25;8.57;;;4.80;;
64550;SDS011;50945;44.472;-123.352;2022-11-15T02:01:52;8.50;;;4.93;;
64550;SDS011;50945;44.472;-123.352;2022-11-15T02:06:48;12.98;;;5.72;;
64550;SDS011;50945;44.472;-123.352;2022-11-15T02:09:16;9.65;;;5.15;;
64550;SDS011;50945;44.472;-123.352;2022-11-15T02:11:43;9.90;;;6.15;;
64550;SDS011;50945;44.472;-123.352;2022-11-15T02:14:10;13.75;;;7.35;;
64550;SDS011;50945;44.472;-123.352;2022-11-15T02:16:56;13.50;;;6.97;;
64550;SDS011;50945;44.472;-123.352;2022-11-15T02:28:42;15.10;;;6.63;;
64550;SDS011;50945;44.472;-123.352;2022-11-15T02:37:02;10.05;;;5.65;;
64550;SDS011;50945;44.472;-123.352;2022-11-15T02:42:19;8.25;;;4.88;;
64550;SDS011;50945;44.472;-123.352;2022-11-15T02:45:09;8.43;;;4.00;;
64550;SDS011;50945;44.472;-123.352;2022-11-15T02:47:43;6.97;;;3.90;;
64550;SDS011;50945;44.472;-123.352;2022-11-15T02:50:14;7.75;;;3.90;;
64550;SDS011;50945;44.472;-123.352;2022-11-15T02:52:50;4.80;;;3.72;;
64550;SDS011;50945;44.472;-123.352;2022-11-15T02:55:30;5.32;;;3.60;;
64550;SDS011;50945;44.472;-123.352;2022-11-15T03:00:35;7.63;;;4.40;;
64550;SDS011;50945;44.472;-123.352;2022-11-15T03:03:17;6.45;;;3.80;;
64550;SDS011;50945;44.472;-123.352;2022-11-15T03:06:01;6.18;;;3.88;;
64550;SDS011;50945;44.472;-123.352;2022-11-15T03:11:22;5.82;;;3.72;;
64550;SDS011;50945;44.472;-123.352;2022-11-15T03:14:00;6.07;;;3.90;;
64550;SDS011;50945;44.472;-123.352;2022-11-15T03:19:19;6.93;;;3.28;;
64550;SDS011;50945;44.472;-123.352;2022-11-15T03:21:52;5.50;;;3.15;;
64550;SDS011;50945;44.472;-123.352;2022-11-15T03:24:23;5.15;;;3.22;;
64550;SDS011;50945;44.472;-123.352;2022-11-15T03:26:53;11.63;;;3.80;;
64550;SDS011;50945;44.472;-123.352;2022-11-15T03:29:26;6.85;;;3.70;;
64550;SDS011;50945;44.472;-123.352;2022-11-15T03:32:02;8.48;;;4.53;;
64550;SDS011;50945;44.472;-123.352;2022-11-15T03:37:08;8.48;;;4.18;;
64550;SDS011;50945;44.472;-123.352;2022-11-15T03:39:39;6.80;;;3.70;;
64550;SDS011;50945;44.472;-123.352;2022-11-15T03:44:38;7.32;;;3.90;;
64550;SDS011;50945;44.472;-123.352;2022-11-15T03:47:10;6.90;;;3.80;;
64550;SDS011;50945;44.472;-123.352;2022-11-15T03:49:51;9.13;;;4.18;;
64550;SDS011;50945;44.472;-123.352;2022-11-15T03:52:22;8.57;;;4.10;;
64550;SDS011;50945;44.472;-123.352;2022-11-15T03:54:53;7.47;;;3.80;;
64550;SDS011;50945;44.472;-123.352;2022-11-15T03:57:21;7.78;;;4.00;;
64550;SDS011;50945;44.472;-123.352;2022-11-15T03:59:48;4.97;;;3.47;;
64550;SDS011;50945;44.472;-123.352;2022-11-15T04:02:15;6.10;;;4.10;;
64550;SDS011;50945;44.472;-123.352;2022-11-15T04:04:41;5.85;;;3.42;;
64550;SDS011;50945;44.472;-123.352;2022-11-15T04:07:08;6.28;;;3.83;;
64550;SDS011;50945;44.472;-123.352;2022-11-15T04:09:34;5.20;;;3.70;;
64550;SDS011;50945;44.472;-123.352;2022-11-15T04:15:00;5.05;;;3.42;;
64550;SDS011;50945;44.472;-123.352;2022-11-15T04:17:41;6.15;;;3.85;;
64550;SDS011;50945;44.472;-123.352;2022-11-15T04:20:17;8.13;;;3.72;;
64550;SDS011;50945;44.472;-123.352;2022-11-15T04:23:17;5.03;;;3.58;;
64550;SDS011;50945;44.472;-123.352;2022-11-15T04:28:42;7.63;;;4.03;;
64550;SDS011;50945;44.472;-123.352;2022-11-15T04:31:26;5.13;;;3.67;;
64550;SDS011;50945;44.472;-123.352;2022-11-15T04:33:54;6.18;;;3.58;;
64550;SDS011;50945;44.472;-123.352;2022-11-15T04:36:20;5.82;;;4.13;;
64550;SDS011;50945;44.472;-123.352;2022-11-15T04:39:05;5.07;;;3.40;;
64550;SDS011;50945;44.472;-123.352;2022-11-15T04:41:31;6.15;;;4.10;;
64550;SDS011;50945;44.472;-123.352;2022-11-15T04:43:58;4.97;;;3.63;;
64550;SDS011;50945;44.472;-123.352;2022-11-15T04:46:24;9.45;;;4.38;;
64550;SDS011;50945;44.472;-123.352;2022-11-15T04:48:51;6.18;;;3.55;;
64550;SDS011;50945;44.472;-123.352;2022-11-15T04:51:19;7.13;;;3.70;;
64550;SDS011;50945;44.472;-123.352;2022-11-15T04:53:45;4.82;;;3.65;;
64550;SDS011;50945;44.472;-123.352;2022-11-15T04:56:12;7.85;;;4.00;;
64550;SDS011;50945;44.472;-123.352;2022-11-15T04:58:39;7.18;;;3.88;;
64550;SDS011;50945;44.472;-123.352;2022-11-15T05:01:14;6.82;;;3.85;;
64550;SDS011;50945;44.472;-123.352;2022-11-15T05:03:41;9.98;;;4.13;;
64550;SDS011;50945;44.472;-123.352;2022-11-15T05:06:26;8.73;;;4.18;;
64550;SDS011;50945;44.472;-123.352;2022-11-15T05:08:53;6.45;;;4.18;;
64550;SDS011;50945;44.472;-123.352;2022-11-15T05:11:20;7.53;;;4.00;;
64550;SDS011;50945;44.472;-123.352;2022-11-15T05:13:47;7.45;;;3.75;;
64550;SDS011;50945;44.472;-123.352;2022-11-15T05:16:14;6.10;;;3.85;;
64550;SDS011;50945;44.472;-123.352;2022-11-15T05:18:40;7.13;;;3.83;;
64550;SDS011;50945;44.472;-123.352;2022-11-15T05:21:08;7.38;;;3.83;;
64550;SDS011;50945;44.472;-123.352;2022-11-15T05:23:36;6.47;;;4.45;;
64550;SDS011;50945;44.472;-123.352;2022-11-15T05:26:04;5.75;;;3.30;;
64550;SDS011;50945;44.472;-123.352;2022-11-15T05:28:32;7.15;;;4.03;;
64550;SDS011;50945;44.472;-123.352;2022-11-15T05:31:09;6.68;;;3.55;;
64550;SDS011;50945;44.472;-123.352;2022-11-15T05:33:40;5.55;;;3.67;;
64550;SDS011;50945;44.472;-123.352;2022-11-15T05:38:53;5.00;;;3.30;;
64550;SDS011;50945;44.472;-123.352;2022-11-15T05:41:20;4.80;;;3.50;;
64550;SDS011;50945;44.472;-123.352;2022-11-15T05:44:00;9.32;;;3.58;;
64550;SDS011;50945;44.472;-123.352;2022-11-15T05:46:28;6.30;;;3.53;;
64550;SDS011;50945;44.472;-123.352;2022-11-15T05:48:58;6.30;;;3.65;;
64550;SDS011;50945;44.472;-123.352;2022-11-15T05:51:25;5.85;;;3.97;;
64550;SDS011;50945;44.472;-123.352;2022-11-15T05:53:55;6.55;;;3.38;;
64550;SDS011;50945;44.472;-123.352;2022-11-15T05:56:24;6.63;;;3.65;;
64550;SDS011;50945;44.472;-123.352;2022-11-15T06:01:19;4.82;;;3.92;;
64550;SDS011;50945;44.472;-123.352;2022-11-15T06:03:45;3.47;;;3.00;;
64550;SDS011;50945;44.472;-123.352;2022-11-15T06:06:12;6.68;;;3.17;;
64550;SDS011;50945;44.472;-123.352;2022-11-15T06:08:39;5.60;;;3.33;;
64550;SDS011;50945;44.472;-123.352;2022-11-15T06:11:05;5.38;;;3.75;;
64550;SDS011;50945;44.472;-123.352;2022-11-15T06:13:33;5.20;;;3.45;;
64550;SDS011;50945;44.472;-123.352;2022-11-15T06:15:59;7.03;;;3.88;;
64550;SDS011;50945;44.472;-123.352;2022-11-15T06:18:26;5.07;;;3.58;;
64550;SDS011;50945;44.472;-123.352;2022-11-15T06:20:53;4.78;;;3.70;;
64550;SDS011;50945;44.472;-123.352;2022-11-15T06:23:27;6.35;;;3.70;;
64550;SDS011;50945;44.472;-123.352;2022-11-15T06:26:00;5.07;;;3.13;;
64550;SDS011;50945;44.472;-123.352;2022-11-15T06:28:28;6.80;;;3.70;;
64550;SDS011;50945;44.472;-123.352;2022-11-15T06:30:56;5.85;;;3.70;;
64550;SDS011;50945;44.472;-123.352;2022-11-15T06:33:30;5.28;;;3.78;;
64550;SDS011;50945;44.472;-123.352;2022-11-15T06:36:00;5.07;;;3.60;;
64550;SDS011;50945;44.472;-123.352;2022-11-15T06:38:31;5.35;;;3.63;;
64550;SDS011;50945;44.472;-123.352;2022-11-15T06:41:01;5.80;;;3.72;;
64550;SDS011;50945;44.472;-123.352;2022-11-15T06:43:33;6.97;;;4.15;;
64550;SDS011;50945;44.472;-123.352;2022-11-15T06:46:01;4.55;;;3.30;;
64550;SDS011;50945;44.472;-123.352;2022-11-15T06:48:29;8.38;;;3.53;;
64550;SDS011;50945;44.472;-123.352;2022-11-15T06:50:57;5.18;;;3.17;;
64550;SDS011;50945;44.472;-123.352;2022-11-15T06:53:25;5.28;;;3.67;;
64550;SDS011;50945;44.472;-123.352;2022-11-15T06:55:52;4.55;;;3.63;;
64550;SDS011;50945;44.472;-123.352;2022-11-15T06:58:20;4.90;;;3.63;;
64550;SDS011;50945;44.472;-123.352;2022-11-15T07:00:47;5.53;;;3.10;;
64550;SDS011;50945;44.472;-123.352;2022-11-15T07:03:13;6.18;;;3.33;;
64550;SDS011;50945;44.472;-123.352;2022-11-15T07:05:39;6.60;;;3.92;;
64550;SDS011;50945;44.472;-123.352;2022-11-15T07:08:06;6.93;;;3.92;;
64550;SDS011;50945;44.472;-123.352;2022-11-15T07:10:32;8.55;;;4.60;;
64550;SDS011;50945;44.472;-123.352;2022-11-15T07:12:58;7.97;;;3.90;;
64550;SDS011;50945;44.472;-123.352;2022-11-15T07:15:25;7.03;;;3.78;;
64550;SDS011;50945;44.472;-123.352;2022-11-15T07:17:52;6.57;;;4.07;;
64550;SDS011;50945;44.472;-123.352;2022-11-15T07:20:18;6.15;;;3.50;;
64550;SDS011;50945;44.472;-123.352;2022-11-15T07:22:44;5.38;;;3.40;;
64550;SDS011;50945;44.472;-123.352;2022-11-15T07:25:11;8.27;;;3.80;;
64550;SDS011;50945;44.472;-123.352;2022-11-15T07:27:37;6.70;;;3.28;;
64550;SDS011;50945;44.472;-123.352;2022-11-15T07:30:04;7.60;;;4.20;;
64550;SDS011;50945;44.472;-123.352;2022-11-15T07:32:31;6.53;;;3.35;;
64550;SDS011;50945;44.472;-123.352;2022-11-15T07:34:57;6.22;;;3.55;;
64550;SDS011;50945;44.472;-123.352;2022-11-15T07:37:24;6.38;;;3.65;;
64550;SDS011;50945;44.472;-123.352;2022-11-15T07:39:50;6.43;;;3.90;;
64550;SDS011;50945;44.472;-123.352;2022-11-15T07:42:16;5.53;;;2.95;;
64550;SDS011;50945;44.472;-123.352;2022-11-15T07:45:01;8.02;;;4.90;;
64550;SDS011;50945;44.472;-123.352;2022-11-15T07:47:28;5.22;;;3.65;;
64550;SDS011;50945;44.472;-123.352;2022-11-15T07:49:54;6.70;;;3.72;;
64550;SDS011;50945;44.472;-123.352;2022-11-15T07:52:21;6.35;;;3.22;;
64550;SDS011;50945;44.472;-123.352;2022-11-15T07:54:47;6.78;;;4.13;;
64550;SDS011;50945;44.472;-123.352;2022-11-15T07:57:13;5.65;;;3.22;;
64550;SDS011;50945;44.472;-123.352;2022-11-15T07:59:40;4.68;;;3.20;;
64550;SDS011;50945;44.472;-123.352;2022-11-15T08:02:08;5.05;;;3.67;;
64550;SDS011;50945;44.472;-123.352;2022-11-15T08:04:35;5.65;;;2.97;;
64550;SDS011;50945;44.472;-123.352;2022-11-15T08:07:01;5.05;;;3.35;;
64550;SDS011;50945;44.472;-123.352;2022-11-15T08:09:27;5.88;;;3.53;;
64550;SDS011;50945;44.472;-123.352;2022-11-15T08:11:54;5.40;;;3.08;;
64550;SDS011;50945;44.472;-123.352;2022-11-15T08:14:20;7.72;;;3.13;;
64550;SDS011;50945;44.472;-123.352;2022-11-15T08:16:47;6.22;;;3.38;;
64550;SDS011;50945;44.472;-123.352;2022-11-15T08:19:14;5.03;;;3.35;;
64550;SDS011;50945;44.472;-123.352;2022-11-15T08:21:40;4.65;;;3.42;;
64550;SDS011;50945;44.472;-123.352;2022-11-15T08:24:08;5.63;;;3.15;;
64550;SDS011;50945;44.472;-123.352;2022-11-15T08:26:38;4.95;;;3.05;;
64550;SDS011;50945;44.472;-123.352;2022-11-15T08:29:05;5.70;;;3.50;;
64550;SDS011;50945;44.472;-123.352;2022-11-15T08:31:34;5.05;;;3.42;;
64550;SDS011;50945;44.472;-123.352;2022-11-15T08:34:04;5.75;;;3.53;;
64550;SDS011;50945;44.472;-123.352;2022-11-15T08:38:57;5.90;;;4.05;;
64550;SDS011;50945;44.472;-123.352;2022-11-15T08:41:28;5.72;;;3.17;;
64550;SDS011;50945;44.472;-123.352;2022-11-15T08:43:58;8.20;;;3.25;;
64550;SDS011;50945;44.472;-123.352;2022-11-15T08:46:25;6.70;;;3.90;;
64550;SDS011;50945;44.472;-123.352;2022-11-15T08:48:51;5.18;;;3.80;;
64550;SDS011;50945;44.472;-123.352;2022-11-15T08:51:17;6.65;;;4.22;;
64550;SDS011;50945;44.472;-123.352;2022-11-15T08:53:44;4.35;;;3.17;;
64550;SDS011;50945;44.472;-123.352;2022-11-15T08:56:11;6.30;;;4.15;;
64550;SDS011;50945;44.472;-123.352;2022-11-15T08:58:38;7.90;;;3.92;;
64550;SDS011;50945;44.472;-123.352;2022-11-15T09:01:05;10.40;;;4.40;;
64550;SDS011;50945;44.472;-123.352;2022-11-15T09:03:40;8.75;;;4.93;;
64550;SDS011;50945;44.472;-123.352;2022-11-15T09:06:07;8.27;;;4.22;;
64550;SDS011;50945;44.472;-123.352;2022-11-15T09:08:34;5.90;;;4.25;;
64550;SDS011;50945;44.472;-123.352;2022-11-15T09:11:07;6.50;;;4.07;;
64550;SDS011;50945;44.472;-123.352;2022-11-15T09:13:35;9.13;;;4.90;;
64550;SDS011;50945;44.472;-123.352;2022-11-15T09:16:02;5.97;;;4.13;;
64550;SDS011;50945;44.472;-123.352;2022-11-15T09:18:29;7.85;;;4.00;;
64550;SDS011;50945;44.472;-123.352;2022-11-15T09:21:00;9.05;;;4.38;;
64550;SDS011;50945;44.472;-123.352;2022-11-15T09:23:28;7.90;;;4.35;;
64550;SDS011;50945;44.472;-123.352;2022-11-15T09:25:58;5.28;;;3.72;;
64550;SDS011;50945;44.472;-123.352;2022-11-15T09:28:27;6.53;;;3.65;;
64550;SDS011;50945;44.472;-123.352;2022-11-15T09:31:00;5.35;;;3.63;;
64550;SDS011;50945;44.472;-123.352;2022-11-15T09:33:28;6.90;;;3.78;;
64550;SDS011;50945;44.472;-123.352;2022-11-15T09:35:59;8.55;;;4.32;;
64550;SDS011;50945;44.472;-123.352;2022-11-15T09:38:30;5.03;;;3.47;;
64550;SDS011;50945;44.472;-123.352;2022-11-15T09:49:57;6.00;;;4.10;;
64550;SDS011;50945;44.472;-123.352;2022-11-15T09:52:26;5.95;;;3.63;;
64550;SDS011;50945;44.472;-123.352;2022-11-15T09:54:53;6.47;;;3.67;;
64550;SDS011;50945;44.472;-123.352;2022-11-15T09:57:37;4.65;;;3.50;;
64550;SDS011;50945;44.472;-123.352;2022-11-15T10:00:11;4.93;;;3.13;;
64550;SDS011;50945;44.472;-123.352;2022-11-15T10:05:20;4.60;;;3.13;;
64550;SDS011;50945;44.472;-123.352;2022-11-15T10:13:00;7.13;;;3.58;;
64550;SDS011;50945;44.472;-123.352;2022-11-15T10:15:27;7.47;;;4.10;;
64550;SDS011;50945;44.472;-123.352;2022-11-15T10:20:41;6.10;;;3.47;;
64550;SDS011;50945;44.472;-123.352;2022-11-15T10:23:21;5.43;;;3.45;;
64550;SDS011;50945;44.472;-123.352;2022-11-15T10:26:00;4.28;;;3.60;;
64550;SDS011;50945;44.472;-123.352;2022-11-15T10:28:28;4.57;;;3.38;;
64550;SDS011;50945;44.472;-123.352;2022-11-15T10:30:56;5.20;;;3.00;;
64550;SDS011;50945;44.472;-123.352;2022-11-15T10:41:15;4.82;;;3.50;;
64550;SDS011;50945;44.472;-123.352;2022-11-15T10:43:44;8.57;;;3.90;;
64550;SDS011;50945;44.472;-123.352;2022-11-15T10:46:21;6.22;;;3.65;;
64550;SDS011;50945;44.472;-123.352;2022-11-15T10:48:49;5.05;;;3.33;;
64550;SDS011;50945;44.472;-123.352;2022-11-15T10:51:25;5.05;;;3.72;;
64550;SDS011;50945;44.472;-123.352;2022-11-15T10:53:56;4.10;;;3.30;;
64550;SDS011;50945;44.472;-123.352;2022-11-15T10:56:26;4.45;;;3.58;;
64550;SDS011;50945;44.472;-123.352;2022-11-15T10:58:56;5.93;;;3.55;;
64550;SDS011;50945;44.472;-123.352;2022-11-15T11:01:24;7.32;;;3.65;;
64550;SDS011;50945;44.472;-123.352;2022-11-15T11:03:59;4.75;;;3.40;;
64550;SDS011;50945;44.472;-123.352;2022-11-15T11:06:31;4.50;;;3.20;;
64550;SDS011;50945;44.472;-123.352;2022-11-15T11:09:35;5.50;;;3.92;;
64550;SDS011;50945;44.472;-123.352;2022-11-15T11:12:04;6.85;;;3.60;;
64550;SDS011;50945;44.472;-123.352;2022-11-15T11:14:35;5.28;;;3.50;;
64550;SDS011;50945;44.472;-123.352;2022-11-15T11:17:13;6.22;;;3.60;;
64550;SDS011;50945;44.472;-123.352;2022-11-15T11:20:00;4.93;;;3.22;;
64550;SDS011;50945;44.472;-123.352;2022-11-15T11:22:42;6.72;;;3.42;;
64550;SDS011;50945;44.472;-123.352;2022-11-15T11:25:18;7.05;;;3.25;;
64550;SDS011;50945;44.472;-123.352;2022-11-15T11:33:44;6.35;;;3.67;;
64550;SDS011;50945;44.472;-123.352;2022-11-15T11:52:12;8.07;;;4.05;;
64550;SDS011;50945;44.472;-123.352;2022-11-15T11:54:48;5.38;;;3.20;;
64550;SDS011;50945;44.472;-123.352;2022-11-15T12:00:15;6.63;;;3.45;;
64550;SDS011;50945;44.472;-123.352;2022-11-15T12:06:01;4.63;;;3.17;;
64550;SDS011;50945;44.472;-123.352;2022-11-15T12:14:11;5.78;;;3.30;;
64550;SDS011;50945;44.472;-123.352;2022-11-15T12:16:46;5.25;;;3.30;;
64550;SDS011;50945;44.472;-123.352;2022-11-15T12:19:12;10.82;;;3.92;;
64550;SDS011;50945;44.472;-123.352;2022-11-15T12:21:56;8.05;;;3.88;;
64550;SDS011;50945;44.472;-123.352;2022-11-15T12:24:37;11.43;;;3.97;;
64550;SDS011;50945;44.472;-123.352;2022-11-15T12:30:20;4.43;;;3.22;;
64550;SDS011;50945;44.472;-123.352;2022-11-15T12:32:52;5.80;;;3.47;;
64550;SDS011;50945;44.472;-123.352;2022-11-15T12:38:04;6.53;;;3.78;;
64550;SDS011;50945;44.472;-123.352;2022-11-15T12:40:32;4.40;;;3.28;;
64550;SDS011;50945;44.472;-123.352;2022-11-15T12:43:46;5.72;;;3.20;;
64550;SDS011;50945;44.472;-123.352;2022-11-15T12:46:10;5.05;;;2.95;;
64550;SDS011;50945;44.472;-123.352;2022-11-15T12:51:16;5.72;;;3.08;;
64550;SDS011;50945;44.472;-123.352;2022-11-15T12:53:45;7.40;;;3.47;;
64550;SDS011;50945;44.472;-123.352;2022-11-15T12:58:57;7.95;;;2.95;;
64550;SDS011;50945;44.472;-123.352;2022-11-15T13:06:59;5.70;;;3.00;;
64550;SDS011;50945;44.472;-123.352;2022-11-15T13:17:37;4.35;;;3.13;;
64550;SDS011;50945;44.472;-123.352;2022-11-15T13:20:27;4.90;;;3.47;;
64550;SDS011;50945;44.472;-123.352;2022-11-15T13:25:39;5.90;;;3.70;;
64550;SDS011;50945;44.472;-123.352;2022-11-15T13:30:56;7.60;;;3.53;;
64550;SDS011;50945;44.472;-123.352;2022-11-15T13:33:49;4.82;;;3.33;;
64550;SDS011;50945;44.472;-123.352;2022-11-15T13:39:02;5.10;;;3.08;;
64550;SDS011;50945;44.472;-123.352;2022-11-15T13:41:47;5.72;;;3.28;;
64550;SDS011;50945;44.472;-123.352;2022-11-15T13:44:33;4.75;;;3.08;;
64550;SDS011;50945;44.472;-123.352;2022-11-15T13:47:06;6.30;;;3.47;;
64550;SDS011;50945;44.472;-123.352;2022-11-15T13:49:33;5.32;;;3.08;;
64550;SDS011;50945;44.472;-123.352;2022-11-15T13:52:00;6.65;;;3.78;;
64550;SDS011;50945;44.472;-123.352;2022-11-15T13:59:48;6.43;;;3.33;;
64550;SDS011;50945;44.472;-123.352;2022-11-15T14:02:19;6.75;;;3.80;;
64550;SDS011;50945;44.472;-123.352;2022-11-15T14:05:16;7.95;;;3.95;;
64550;SDS011;50945;44.472;-123.352;2022-11-15T14:07:54;5.45;;;3.67;;
64550;SDS011;50945;44.472;-123.352;2022-11-15T14:10:28;5.18;;;3.10;;
64550;SDS011;50945;44.472;-123.352;2022-11-15T14:12:56;5.22;;;3.42;;
64550;SDS011;50945;44.472;-123.352;2022-11-15T14:18:00;7.78;;;3.92;;
64550;SDS011;50945;44.472;-123.352;2022-11-15T14:20:31;7.35;;;4.45;;
64550;SDS011;50945;44.472;-123.352;2022-11-15T14:23:23;6.97;;;4.53;;
64550;SDS011;50945;44.472;-123.352;2022-11-15T14:25:55;9.45;;;4.68;;
64550;SDS011;50945;44.472;-123.352;2022-11-15T14:30:49;10.65;;;3.90;;
64550;SDS011;50945;44.472;-123.352;2022-11-15T14:35:46;6.03;;;3.97;;
64550;SDS011;50945;44.472;-123.352;2022-11-15T14:38:12;10.10;;;5.40;;
64550;SDS011;50945;44.472;-123.352;2022-11-15T14:40:39;12.65;;;5.70;;
64550;SDS011;50945;44.472;-123.352;2022-11-15T14:43:10;8.68;;;4.35;;
64550;SDS011;50945;44.472;-123.352;2022-11-15T14:45:37;8.95;;;4.47;;
64550;SDS011;50945;44.472;-123.352;2022-11-15T14:48:04;7.80;;;3.70;;
64550;SDS011;50945;44.472;-123.352;2022-11-15T14:50:31;7.32;;;3.65;;
64550;SDS011;50945;44.472;-123.352;2022-11-15T14:55:27;6.18;;;4.20;;
64550;SDS011;50945;44.472;-123.352;2022-11-15T14:57:59;6.70;;;3.55;;
64550;SDS011;50945;44.472;-123.352;2022-11-15T15:00:28;5.07;;;3.17;;
64550;SDS011;50945;44.472;-123.352;2022-11-15T15:02:55;6.72;;;3.17;;
64550;SDS011;50945;44.472;-123.352;2022-11-15T15:05:23;5.65;;;3.17;;
64550;SDS011;50945;44.472;-123.352;2022-11-15T15:07:53;5.00;;;3.05;;
64550;SDS011;50945;44.472;-123.352;2022-11-15T15:10:19;8.05;;;3.47;;
64550;SDS011;50945;44.472;-123.352;2022-11-15T15:12:46;8.77;;;4.80;;
64550;SDS011;50945;44.472;-123.352;2022-11-15T15:15:21;7.88;;;3.83;;
64550;SDS011;50945;44.472;-123.352;2022-11-15T15:17:51;6.53;;;3.53;;
64550;SDS011;50945;44.472;-123.352;2022-11-15T15:20:17;8.90;;;4.65;;
64550;SDS011;50945;44.472;-123.352;2022-11-15T15:22:44;6.10;;;3.97;;
64550;SDS011;50945;44.472;-123.352;2022-11-15T15:25:32;13.50;;;6.05;;
64550;SDS011;50945;44.472;-123.352;2022-11-15T15:27:58;21.17;;;8.00;;
64550;SDS011;50945;44.472;-123.352;2022-11-15T15:30:26;16.75;;;7.72;;
64550;SDS011;50945;44.472;-123.352;2022-11-15T15:32:53;17.75;;;7.38;;
64550;SDS011;50945;44.472;-123.352;2022-11-15T15:35:20;11.30;;;5.72;;
64550;SDS011;50945;44.472;-123.352;2022-11-15T15:37:47;10.07;;;6.03;;
64550;SDS011;50945;44.472;-123.352;2022-11-15T15:40:17;7.60;;;4.55;;
64550;SDS011;50945;44.472;-123.352;2022-11-15T15:42:48;9.40;;;4.68;;
64550;SDS011;50945;44.472;-123.352;2022-11-15T15:45:15;9.68;;;4.32;;
64550;SDS011;50945;44.472;-123.352;2022-11-15T15:47:43;8.18;;;4.03;;
64550;SDS011;50945;44.472;-123.352;2022-11-15T15:52:53;7.57;;;3.35;;
64550;SDS011;50945;44.472;-123.352;2022-11-15T15:55:21;6.65;;;3.60;;
64550;SDS011;50945;44.472;-123.352;2022-11-15T15:57:48;5.85;;;3.60;;
64550;SDS011;50945;44.472;-123.352;2022-11-15T16:00:15;6.07;;;3.13;;
64550;SDS011;50945;44.472;-123.352;2022-11-15T16:02:42;7.32;;;3.92;;
64550;SDS011;50945;44.472;-123.352;2022-11-15T16:05:09;6.30;;;3.33;;
64550;SDS011;50945;44.472;-123.352;2022-11-15T16:07:36;7.68;;;3.40;;
64550;SDS011;50945;44.472;-123.352;2022-11-15T16:10:48;6.35;;;3.10;;
64550;SDS011;50945;44.472;-123.352;2022-11-15T16:12:54;6.30;;;3.65;;
64550;SDS011;50945;44.472;-123.352;2022-11-15T16:15:22;16.33;;;6.75;;
64550;SDS011;50945;44.472;-123.352;2022-11-15T16:17:50;11.90;;;6.57;;
64550;SDS011;50945;44.472;-123.352;2022-11-15T16:22:54;8.68;;;4.20;;
64550;SDS011;50945;44.472;-123.352;2022-11-15T16:25:20;6.18;;;3.42;;
64550;SDS011;50945;44.472;-123.352;2022-11-15T16:27:49;6.00;;;3.33;;
64550;SDS011;50945;44.472;-123.352;2022-11-15T16:30:17;7.70;;;3.97;;
64550;SDS011;50945;44.472;-123.352;2022-11-15T16:32:46;10.00;;;4.35;;
64550;SDS011;50945;44.472;-123.352;2022-11-15T16:35:13;6.65;;;3.55;;
64550;SDS011;50945;44.472;-123.352;2022-11-15T16:37:41;8.77;;;3.72;;
64550;SDS011;50945;44.472;-123.352;2022-11-15T16:43:03;11.18;;;3.83;;
64550;SDS011;50945;44.472;-123.352;2022-11-15T16:45:31;7.22;;;4.07;;
64550;SDS011;50945;44.472;-123.352;2022-11-15T16:47:59;8.30;;;4.82;;
64550;SDS011;50945;44.472;-123.352;2022-11-15T16:50:27;6.95;;;4.28;;
64550;SDS011;50945;44.472;-123.352;2022-11-15T16:52:56;8.73;;;4.50;;
64550;SDS011;50945;44.472;-123.352;2022-11-15T16:55:24;15.35;;;6.00;;
64550;SDS011;50945;44.472;-123.352;2022-11-15T16:57:53;7.32;;;4.70;;
64550;SDS011;50945;44.472;-123.352;2022-11-15T17:00:20;10.93;;;5.00;;
64550;SDS011;50945;44.472;-123.352;2022-11-15T17:02:47;14.60;;;6.50;;
64550;SDS011;50945;44.472;-123.352;2022-11-15T17:05:15;13.48;;;6.63;;
64550;SDS011;50945;44.472;-123.352;2022-11-15T17:07:45;13.50;;;6.65;;
64550;SDS011;50945;44.472;-123.352;2022-11-15T17:10:18;15.60;;;6.53;;